createdAt,value
2022-08-09T00:01:54.710Z,18.50
2022-08-09T00:04:34.954Z,18.40
2022-08-09T00:07:07.598Z,18.40
2022-08-09T00:09:41.526Z,18.30
2022-08-09T00:12:22.468Z,18.30
2022-08-09T00:15:06.656Z,18.10
2022-08-09T00:18:10.515Z,18.20
2022-08-09T00:20:25.204Z,18.20
2022-08-09T00:22:54.562Z,18.20
2022-08-09T00:25:32.661Z,18.10
2022-08-09T00:28:04.163Z,18.00
2022-08-09T00:30:33.821Z,17.90
2022-08-09T00:33:03.057Z,17.90
2022-08-09T00:36:52.677Z,17.80
2022-08-09T00:40:10.421Z,17.90
2022-08-09T00:44:15.691Z,17.90
2022-08-09T00:45:03.531Z,17.90
2022-08-09T00:47:43.809Z,17.80
2022-08-09T00:50:15.170Z,17.70
2022-08-09T00:52:44.756Z,17.70
2022-08-09T00:56:39.500Z,17.70
2022-08-09T00:59:10.076Z,17.60
2022-08-09T01:01:44.853Z,17.50
2022-08-09T01:04:28.124Z,17.50
2022-08-09T01:07:38.018Z,17.40
2022-08-09T01:10:32.228Z,17.40
2022-08-09T01:13:11.752Z,17.40
2022-08-09T01:15:51.695Z,17.40
2022-08-09T01:18:30.353Z,17.40
2022-08-09T01:21:19.063Z,17.30
2022-08-09T01:24:04.858Z,17.30
2022-08-09T01:27:01.406Z,17.20
2022-08-09T01:29:54.879Z,17.20
2022-08-09T01:32:34.221Z,17.20
2022-08-09T01:35:28.573Z,17.20
2022-08-09T01:38:10.492Z,17.10
2022-08-09T01:40:53.147Z,17.10
2022-08-09T01:47:31.489Z,17.00
2022-08-09T01:50:06.592Z,17.00
2022-08-09T01:52:43.733Z,16.90
2022-08-09T01:55:14.856Z,16.80
2022-08-09T01:57:50.724Z,16.80
2022-08-09T02:00:35.551Z,16.80
2022-08-09T02:03:13.564Z,16.70
2022-08-09T02:06:45.538Z,16.70
2022-08-09T02:09:41.666Z,16.70
2022-08-09T02:12:21.237Z,16.70
2022-08-09T02:14:56.407Z,16.60
2022-08-09T02:18:01.537Z,16.60
2022-08-09T02:20:26.226Z,16.60
2022-08-09T02:23:08.279Z,16.50
2022-08-09T02:25:49.607Z,16.50
2022-08-09T02:28:36.393Z,16.40
2022-08-09T02:31:14.451Z,16.50
2022-08-09T02:46:44.661Z,16.30
2022-08-09T02:49:20.696Z,16.30
2022-08-09T02:52:11.627Z,16.20
2022-08-09T02:54:51.225Z,16.20
2022-08-09T02:57:26.820Z,16.10
2022-08-09T03:00:20.567Z,16.10
2022-08-09T03:03:00.229Z,16.10
2022-08-09T03:05:34.373Z,16.10
2022-08-09T03:08:06.538Z,16.10
2022-08-09T03:10:39.374Z,16.00
2022-08-09T03:13:15.221Z,16.00
2022-08-09T03:20:35.003Z,15.90
2022-08-09T03:23:24.373Z,15.90
2022-08-09T03:30:28.143Z,15.80
2022-08-09T03:33:53.157Z,15.80
2022-08-09T03:36:27.262Z,15.70
2022-08-09T03:38:58.439Z,15.60
2022-08-09T03:41:44.833Z,15.60
2022-08-09T03:44:16.951Z,15.70
2022-08-09T03:46:50.418Z,15.70
2022-08-09T03:49:58.282Z,15.70
2022-08-09T03:52:29.808Z,15.60
2022-08-09T03:55:09.866Z,15.50
2022-08-09T03:57:44.648Z,15.50
2022-08-09T04:00:28.466Z,15.50
2022-08-09T04:03:01.882Z,15.50
2022-08-09T04:05:33.121Z,15.50
2022-08-09T04:08:10.636Z,15.50
2022-08-09T04:10:40.457Z,15.40
2022-08-09T04:13:11.781Z,15.40
2022-08-09T04:16:18.894Z,15.40
2022-08-09T04:18:34.460Z,15.40
2022-08-09T04:21:05.740Z,15.40
2022-08-09T04:23:39.149Z,15.40
2022-08-09T04:26:12.785Z,15.40
2022-08-09T04:28:46.948Z,15.40
2022-08-09T04:31:16.524Z,15.30
2022-08-09T04:33:56.610Z,15.40
2022-08-09T04:37:06.740Z,15.30
2022-08-09T04:39:40.551Z,15.30
2022-08-09T04:42:12.208Z,15.30
2022-08-09T04:44:49.111Z,15.30
2022-08-09T04:47:18.959Z,15.30
2022-08-09T04:49:56.930Z,15.30
2022-08-09T04:52:29.573Z,15.20
2022-08-09T04:55:06.517Z,15.20
2022-08-09T04:57:53.864Z,15.20
2022-08-09T05:00:31.859Z,15.20
2022-08-09T05:03:12.788Z,15.20
2022-08-09T05:06:06.490Z,15.20
2022-08-09T05:08:43.946Z,15.20
2022-08-09T05:11:22.594Z,15.20
2022-08-09T05:14:05.857Z,15.20
2022-08-09T05:16:59.392Z,15.20
2022-08-09T05:19:46.079Z,15.20
2022-08-09T05:22:33.107Z,15.20
2022-08-09T05:29:22.693Z,15.20
2022-08-09T05:32:01.812Z,15.20
2022-08-09T05:35:12.955Z,15.20
2022-08-09T05:37:47.710Z,15.20
2022-08-09T05:40:19.774Z,15.20
2022-08-09T05:42:52.366Z,15.30
2022-08-09T05:50:35.108Z,15.30
2022-08-09T05:52:55.055Z,15.30
2022-08-09T05:55:25.202Z,15.30
2022-08-09T06:02:33.212Z,15.40
2022-08-09T06:05:05.805Z,15.50
2022-08-09T06:08:05.499Z,15.50
2022-08-09T06:15:30.155Z,15.60
2022-08-09T06:18:04.302Z,15.70
2022-08-09T06:20:42.508Z,15.70
2022-08-09T06:23:55.496Z,15.80
2022-08-09T06:26:28.433Z,15.80
2022-08-09T06:29:16.911Z,15.80
2022-08-09T06:32:17.143Z,15.90
2022-08-09T06:34:50.160Z,15.90
2022-08-09T06:38:06.083Z,16.00
2022-08-09T06:40:36.217Z,16.10
2022-08-09T06:48:00.902Z,16.20
2022-08-09T06:51:14.879Z,16.40
2022-08-09T06:53:45.626Z,16.40
2022-08-09T06:56:30.865Z,16.50
2022-08-09T07:00:56.986Z,16.60
2022-08-09T07:03:52.434Z,16.70
2022-08-09T07:06:22.811Z,16.80
2022-08-09T07:08:56.722Z,16.90
2022-08-09T07:12:38.681Z,16.90
2022-08-09T07:15:54.014Z,17.10
2022-08-09T07:18:50.074Z,17.10
2022-08-09T07:21:20.802Z,17.30
2022-08-09T07:23:56.736Z,17.30
2022-08-09T07:26:27.780Z,17.40
2022-08-09T07:30:17.371Z,17.50
2022-08-09T07:32:47.203Z,17.60
2022-08-09T07:35:20.752Z,17.90
2022-08-09T07:37:54.024Z,17.90
2022-08-09T07:40:41.590Z,18.10
2022-08-09T07:43:18.244Z,18.20
2022-08-09T07:45:47.528Z,18.30
2022-08-09T07:48:25.620Z,18.60
2022-08-09T07:51:09.460Z,18.70
2022-08-09T07:54:06.993Z,18.80
2022-08-09T07:56:48.815Z,18.70
2022-08-09T07:59:25.667Z,18.80
2022-08-09T08:02:09.713Z,19.10
2022-08-09T08:04:40.053Z,19.30
2022-08-09T08:07:14.837Z,19.40
2022-08-09T08:10:08.076Z,19.50
2022-08-09T08:12:43.494Z,19.70
2022-08-09T08:15:16.693Z,19.70
2022-08-09T08:17:53.115Z,19.60
2022-08-09T08:20:29.478Z,19.60
2022-08-09T08:23:03.557Z,19.90
2022-08-09T08:25:54.344Z,19.90
2022-08-09T08:28:37.611Z,20.10
2022-08-09T08:31:14.301Z,20.10
2022-08-09T08:33:53.942Z,20.20
2022-08-09T08:36:29.767Z,20.40
2022-08-09T08:39:00.481Z,20.50
2022-08-09T08:41:50.800Z,20.50
2022-08-09T08:44:28.792Z,20.60
2022-08-09T08:47:04.885Z,20.70
2022-08-09T08:49:46.655Z,20.80
2022-08-09T08:52:52.776Z,20.90
2022-08-09T08:55:11.235Z,21.00
2022-08-09T08:57:56.767Z,21.20
2022-08-09T09:00:39.395Z,21.30
2022-08-09T09:03:22.714Z,21.50
2022-08-09T09:06:07.898Z,21.50
2022-08-09T09:08:44.286Z,21.60
2022-08-09T09:11:22.369Z,21.70
2022-08-09T09:13:58.634Z,21.80
2022-08-09T09:16:34.107Z,22.20
2022-08-09T09:22:05.386Z,22.30
2022-08-09T09:24:43.884Z,22.40
2022-08-09T09:28:02.974Z,22.40
2022-08-09T09:30:54.656Z,22.60
2022-08-09T09:33:44.625Z,22.80
2022-08-09T09:36:20.779Z,23.00
2022-08-09T09:38:57.028Z,23.30
2022-08-09T09:41:48.868Z,23.40
2022-08-09T09:44:27.785Z,23.70
2022-08-09T09:47:12.143Z,23.80
2022-08-09T09:49:56.169Z,24.00
2022-08-09T09:52:36.439Z,24.10
2022-08-09T09:55:24.123Z,24.40
2022-08-09T09:58:16.862Z,24.70
2022-08-09T10:00:54.898Z,24.70
2022-08-09T10:03:57.545Z,24.90
2022-08-09T10:06:32.568Z,24.90
2022-08-09T10:09:11.748Z,24.90
2022-08-09T10:12:07.685Z,25.20
2022-08-09T10:14:48.743Z,25.40
2022-08-09T10:17:50.965Z,25.50
2022-08-09T10:20:32.908Z,25.60
2022-08-09T10:23:18.533Z,25.60
2022-08-09T10:26:06.094Z,25.90
2022-08-09T10:28:39.895Z,25.90
2022-08-09T10:34:08.337Z,26.20
2022-08-09T10:36:56.766Z,25.80
2022-08-09T10:39:28.521Z,25.40
2022-08-09T10:41:58.063Z,25.30
2022-08-09T10:44:31.908Z,25.30
2022-08-09T10:48:19.266Z,25.30
2022-08-09T10:50:51.285Z,25.50
2022-08-09T10:53:54.514Z,25.80
2022-08-09T10:56:27.327Z,25.80
2022-08-09T10:59:03.539Z,25.70
2022-08-09T11:03:13.708Z,25.50
2022-08-09T11:05:25.331Z,25.40
2022-08-09T11:08:43.783Z,25.20
2022-08-09T11:11:23.145Z,25.50
2022-08-09T11:14:32.325Z,25.80
2022-08-09T11:17:01.562Z,25.70
2022-08-09T11:20:12.027Z,26.00
2022-08-09T11:23:02.941Z,26.40
2022-08-09T11:25:54.693Z,26.40
2022-08-09T11:28:56.499Z,26.30
2022-08-09T11:31:52.770Z,26.30
2022-08-09T11:34:44.793Z,26.30
2022-08-09T11:37:41.057Z,26.70
2022-08-09T11:40:17.907Z,26.80
2022-08-09T11:42:49.900Z,27.00
2022-08-09T11:45:42.561Z,27.20
2022-08-09T11:48:27.676Z,27.40
2022-08-09T11:51:38.090Z,27.30
2022-08-09T11:54:28.946Z,27.50
2022-08-09T11:57:47.649Z,27.40
2022-08-09T12:00:33.812Z,27.10
2022-08-09T12:03:50.370Z,27.00
2022-08-09T12:05:56.327Z,26.90
2022-08-09T12:08:27.650Z,26.90
2022-08-09T12:10:59.144Z,26.80
2022-08-09T12:14:09.600Z,26.70
2022-08-09T12:16:38.393Z,26.70
2022-08-09T12:19:11.429Z,26.70
2022-08-09T12:21:50.643Z,26.60
2022-08-09T12:24:25.786Z,26.80
2022-08-09T12:29:11.994Z,27.00
2022-08-09T12:30:04.263Z,27.20
2022-08-09T12:32:48.714Z,27.60
2022-08-09T12:35:19.425Z,27.80
2022-08-09T12:37:52.164Z,28.00
2022-08-09T12:40:27.344Z,28.30
2022-08-09T12:42:57.599Z,28.50
2022-08-09T12:45:34.733Z,28.50
2022-08-09T12:48:27.867Z,28.80
2022-08-09T12:51:04.039Z,28.90
2022-08-09T12:53:38.618Z,28.80
2022-08-09T12:56:43.829Z,28.70
2022-08-09T12:59:13.974Z,28.70
2022-08-09T13:01:48.605Z,28.70
2022-08-09T13:04:36.359Z,28.70
2022-08-09T13:07:16.694Z,28.90
2022-08-09T13:09:55.380Z,28.90
2022-08-09T13:12:29.744Z,28.80
2022-08-09T13:15:08.697Z,28.60
2022-08-09T13:18:03.723Z,28.50
2022-08-09T13:20:37.251Z,28.50
2022-08-09T13:24:15.668Z,28.40
2022-08-09T13:25:59.275Z,28.40
2022-08-09T13:28:35.635Z,28.50
2022-08-09T13:32:13.653Z,28.60
2022-08-09T13:33:57.798Z,28.90
2022-08-09T13:36:40.826Z,29.50
2022-08-09T13:41:19.327Z,29.80
2022-08-09T13:42:03.549Z,29.60
2022-08-09T13:44:34.652Z,29.70
2022-08-09T13:47:28.901Z,29.30
2022-08-09T13:49:57.766Z,29.10
2022-08-09T13:52:33.979Z,29.00
2022-08-09T13:55:07.319Z,28.90
2022-08-09T13:57:41.018Z,28.90
2022-08-09T14:00:15.491Z,28.80
2022-08-09T14:03:03.544Z,28.70
2022-08-09T14:06:01.184Z,28.60
2022-08-09T14:08:31.971Z,28.40
2022-08-09T14:11:01.517Z,28.40
2022-08-09T14:14:23.421Z,28.40
2022-08-09T14:16:28.709Z,28.50
2022-08-09T14:19:00.074Z,28.50
2022-08-09T14:21:32.225Z,28.50
2022-08-09T14:24:10.045Z,28.50
2022-08-09T14:26:40.090Z,28.50
2022-08-09T14:30:18.382Z,29.00
2022-08-09T14:32:10.636Z,29.50
2022-08-09T14:34:42.356Z,30.00
2022-08-09T14:37:11.966Z,30.40
2022-08-09T14:39:47.733Z,30.60
2022-08-09T14:42:31.647Z,30.80
2022-08-09T14:46:40.280Z,30.60
2022-08-09T14:47:58.009Z,30.30
2022-08-09T14:50:31.491Z,29.90
2022-08-09T14:53:02.262Z,29.70
2022-08-09T14:55:33.096Z,29.60
2022-08-09T14:58:05.270Z,29.50
2022-08-09T15:00:36.699Z,29.30
2022-08-09T15:03:09.049Z,29.40
2022-08-09T15:05:52.593Z,29.40
2022-08-09T15:08:26.647Z,29.30
2022-08-09T15:11:04.882Z,29.20
2022-08-09T15:13:56.355Z,29.00
2022-08-09T15:16:30.481Z,29.00
2022-08-09T15:19:05.634Z,29.00
2022-08-09T15:22:01.215Z,29.00
2022-08-09T15:24:31.097Z,28.90
2022-08-09T15:27:01.286Z,28.60
2022-08-09T15:30:56.375Z,28.60
2022-08-09T15:32:28.552Z,28.80
2022-08-09T15:35:01.024Z,28.70
2022-08-09T15:37:56.805Z,28.50
2022-08-09T15:40:32.127Z,28.50
2022-08-09T15:43:03.785Z,28.60
2022-08-09T15:46:07.438Z,28.50
2022-08-09T15:48:29.072Z,28.50
2022-08-09T15:50:59.800Z,28.40
2022-08-09T15:54:03.417Z,28.40
2022-08-09T15:56:21.721Z,28.30
2022-08-09T15:59:00.221Z,28.20
2022-08-09T16:01:38.419Z,28.00
2022-08-09T16:04:13.561Z,28.00
2022-08-09T16:06:44.612Z,28.00
2022-08-09T16:09:19.760Z,27.90
2022-08-09T16:12:11.521Z,28.00
2022-08-09T16:14:42.462Z,28.00
2022-08-09T16:17:12.038Z,28.00
2022-08-09T16:19:48.980Z,28.00
2022-08-09T16:22:33.758Z,28.00
2022-08-09T16:25:03.481Z,27.90
2022-08-09T16:27:36.197Z,27.90
2022-08-09T16:30:15.349Z,27.80
2022-08-09T16:33:10.171Z,27.80
2022-08-09T16:35:57.242Z,27.70
2022-08-09T16:38:30.026Z,27.70
2022-08-09T16:40:59.443Z,27.70
2022-08-09T16:43:33.704Z,27.60
2022-08-09T16:46:12.474Z,27.60
2022-08-09T16:48:53.193Z,27.50
2022-08-09T16:51:28.514Z,27.60
2022-08-09T16:56:49.411Z,27.40
2022-08-09T16:59:20.006Z,27.40
2022-08-09T17:01:52.878Z,27.30
2022-08-09T17:04:28.171Z,27.30
2022-08-09T17:08:45.395Z,27.30
2022-08-09T17:09:48.850Z,27.30
2022-08-09T17:12:19.704Z,27.20
2022-08-09T17:14:54.880Z,27.10
2022-08-09T17:17:28.015Z,27.10
2022-08-09T17:20:35.691Z,27.10
2022-08-09T17:22:53.238Z,27.00
2022-08-09T17:25:23.738Z,27.00
2022-08-09T17:27:55.219Z,27.00
2022-08-09T17:30:30.657Z,26.90
2022-08-09T17:33:05.663Z,26.80
2022-08-09T17:35:52.256Z,26.80
2022-08-09T17:38:31.968Z,26.70
2022-08-09T17:41:04.756Z,26.70
2022-08-09T17:43:37.014Z,26.60
2022-08-09T17:46:09.296Z,26.50
2022-08-09T17:48:51.984Z,26.50
2022-08-09T17:51:22.693Z,26.50
2022-08-09T17:53:55.832Z,26.50
2022-08-09T17:56:29.151Z,26.50
2022-08-09T17:59:09.315Z,26.50
2022-08-09T18:02:07.912Z,26.40
2022-08-09T18:04:34.120Z,26.40
2022-08-09T18:07:07.660Z,26.30
2022-08-09T18:09:41.365Z,26.30
2022-08-09T18:12:15.084Z,26.10
2022-08-09T18:14:53.707Z,26.10
2022-08-09T18:18:02.861Z,26.00
2022-08-09T18:20:59.965Z,26.00
2022-08-09T18:23:14.200Z,25.90
2022-08-09T18:25:59.407Z,25.80
2022-08-09T18:30:40.711Z,25.80
2022-08-09T18:31:32.098Z,25.60
2022-08-09T18:34:10.494Z,25.60
2022-08-09T18:36:41.753Z,25.50
2022-08-09T18:39:18.799Z,25.50
2022-08-09T18:41:52.536Z,25.30
2022-08-09T18:44:30.205Z,25.30
2022-08-09T18:47:08.329Z,25.20
2022-08-09T18:49:46.247Z,25.30
2022-08-09T18:52:28.568Z,25.10
2022-08-09T18:55:04.067Z,25.10
2022-08-09T18:57:38.592Z,25.00
2022-08-09T19:00:20.024Z,24.90
2022-08-09T19:02:51.155Z,24.80
2022-08-09T19:05:49.109Z,24.70
2022-08-09T19:08:18.557Z,24.70
2022-08-09T19:10:49.117Z,24.70
2022-08-09T19:13:37.921Z,24.70
2022-08-09T19:16:09.307Z,24.60
2022-08-09T19:18:44.273Z,24.60
2022-08-09T19:21:16.850Z,24.50
2022-08-09T19:24:32.337Z,24.40
2022-08-09T19:26:44.779Z,24.10
2022-08-09T19:29:21.492Z,24.10
2022-08-09T19:31:51.603Z,24.10
2022-08-09T19:34:24.569Z,24.00
2022-08-09T19:36:56.478Z,24.10
2022-08-09T19:40:02.903Z,24.00
2022-08-09T19:42:28.345Z,24.00
2022-08-09T19:45:00.645Z,23.90
2022-08-09T19:47:32.086Z,23.90
2022-08-09T19:50:48.867Z,23.80
2022-08-09T19:52:58.234Z,23.70
2022-08-09T19:55:39.193Z,23.50
2022-08-09T19:58:29.760Z,23.60
2022-08-09T20:01:00.307Z,23.50
2022-08-09T20:04:10.800Z,23.40
2022-08-09T20:06:24.018Z,23.40
2022-08-09T20:08:59.611Z,23.30
2022-08-09T20:11:42.846Z,23.20
2022-08-09T20:14:19.433Z,23.20
2022-08-09T20:16:54.469Z,23.10
2022-08-09T20:19:47.543Z,23.00
2022-08-09T20:22:14.166Z,23.00
2022-08-09T20:24:54.214Z,22.80
2022-08-09T20:27:24.786Z,22.80
2022-08-09T20:30:01.097Z,22.80
2022-08-09T20:32:33.626Z,22.60
2022-08-09T20:35:03.917Z,22.40
2022-08-09T20:38:18.643Z,22.50
2022-08-09T20:40:27.659Z,22.60
2022-08-09T20:43:18.200Z,22.60
2022-08-09T20:45:59.543Z,22.50
2022-08-09T20:48:40.162Z,22.50
2022-08-09T20:51:16.787Z,22.40
2022-08-09T20:53:49.552Z,22.30
2022-08-09T20:56:21.887Z,22.20
2022-08-09T20:58:58.889Z,22.10
2022-08-09T21:01:34.624Z,22.10
2022-08-09T21:05:56.276Z,22.10
2022-08-09T21:07:14.113Z,22.00
2022-08-09T21:09:55.805Z,21.90
2022-08-09T21:15:23.809Z,21.70
2022-08-09T21:18:21.861Z,21.80
2022-08-09T21:20:54.382Z,21.70
2022-08-09T21:23:35.974Z,21.70
2022-08-09T21:26:15.664Z,21.70
2022-08-09T21:28:55.794Z,21.60
2022-08-09T21:31:49.405Z,21.60
2022-08-09T21:34:21.095Z,21.40
2022-08-09T21:36:58.192Z,21.30
2022-08-09T21:39:28.171Z,21.40
2022-08-09T21:42:16.263Z,21.30
2022-08-09T21:44:45.927Z,21.20
2022-08-09T21:47:18.196Z,21.10
2022-08-09T21:49:48.322Z,21.10
2022-08-09T21:52:20.794Z,21.20
2022-08-09T21:55:03.207Z,21.10
2022-08-09T21:57:38.665Z,20.90
2022-08-09T22:00:33.187Z,21.00
2022-08-09T22:03:06.819Z,20.90
2022-08-09T22:05:42.432Z,20.80
2022-08-09T22:08:15.292Z,20.70
2022-08-09T22:11:49.108Z,20.70
2022-08-09T22:13:37.219Z,20.70
2022-08-09T22:16:10.105Z,20.60
2022-08-09T22:18:53.999Z,20.60
2022-08-09T22:21:45.316Z,20.60
2022-08-09T22:24:24.272Z,20.60
2022-08-09T22:26:54.321Z,20.60
2022-08-09T22:29:28.907Z,20.50
2022-08-09T22:32:29.424Z,20.50
2022-08-09T22:35:06.282Z,20.40
2022-08-09T22:37:40.427Z,20.30
2022-08-09T22:40:20.022Z,20.30
2022-08-09T22:42:49.964Z,20.30
2022-08-09T22:48:15.791Z,20.20
2022-08-09T22:48:36.127Z,20.10
2022-08-09T22:51:01.050Z,20.00
2022-08-09T22:53:58.495Z,20.10
2022-08-09T22:56:31.384Z,20.00
2022-08-09T22:59:06.013Z,19.90
2022-08-09T23:01:52.323Z,19.90
2022-08-09T23:04:21.586Z,19.90
2022-08-09T23:07:11.259Z,19.80
2022-08-09T23:09:42.766Z,19.80
2022-08-09T23:12:11.698Z,19.70
2022-08-09T23:14:42.502Z,19.70
2022-08-09T23:17:11.944Z,19.50
2022-08-09T23:20:06.903Z,19.50
2022-08-09T23:22:31.345Z,19.50
2022-08-09T23:25:00.162Z,19.50
2022-08-09T23:27:28.906Z,19.30
2022-08-09T23:29:57.668Z,19.30
2022-08-09T23:32:27.557Z,19.30
2022-08-09T23:34:56.386Z,19.30
2022-08-09T23:37:25.674Z,19.30
2022-08-09T23:39:56.056Z,19.20
2022-08-09T23:42:24.832Z,19.20
2022-08-09T23:44:53.683Z,19.10
2022-08-09T23:47:22.533Z,19.10
2022-08-09T23:49:51.329Z,19.10
2022-08-09T23:52:20.057Z,18.90
2022-08-09T23:54:53.281Z,18.90
2022-08-09T23:57:23.844Z,18.90
